sensor_id;sensor_type;location;lat;lon;timestamp;pressure;altitude;pressure_sealevel;temperature;humidity
7906;BME280;13291;40.472;-3.878;2023-06-14T00:00:46;53242.03;;;-139.96;50.74
7906;BME280;13291;40.472;-3.878;2023-06-14T00:03:14;53226.03;;;-139.96;50.27
7906;BME280;13291;40.472;-3.878;2023-06-14T00:05:43;53258.03;;;-139.96;50.41
7906;BME280;13291;40.472;-3.878;2023-06-14T00:08:11;53210.03;;;-139.96;51.07
7906;BME280;13291;40.472;-3.878;2023-06-14T00:10:38;53236.03;;;-139.96;50.75
7906;BME280;13291;40.472;-3.878;2023-06-14T00:13:08;53238.03;;;-139.96;50.54
7906;BME280;13291;40.472;-3.878;2023-06-14T00:15:35;53230.03;;;-139.96;50.71
7906;BME280;13291;40.472;-3.878;2023-06-14T00:18:03;53242.03;;;-139.96;50.78
7906;BME280;13291;40.472;-3.878;2023-06-14T00:20:32;53194.03;;;-139.96;50.65
7906;BME280;13291;40.472;-3.878;2023-06-14T00:22:59;53240.03;;;-139.96;50.68
7906;BME280;13291;40.472;-3.878;2023-06-14T00:25:26;53242.03;;;-139.96;50.97
7906;BME280;13291;40.472;-3.878;2023-06-14T00:27:54;53244.03;;;-139.96;51.08
7906;BME280;13291;40.472;-3.878;2023-06-14T00:30:22;53236.03;;;-139.96;51.07
7906;BME280;13291;40.472;-3.878;2023-06-14T00:32:49;53256.03;;;-139.96;51.20
7906;BME280;13291;40.472;-3.878;2023-06-14T00:35:16;53250.03;;;-139.96;51.31
7906;BME280;13291;40.472;-3.878;2023-06-14T00:37:43;53230.03;;;-139.96;51.43
7906;BME280;13291;40.472;-3.878;2023-06-14T00:40:10;53242.03;;;-139.96;51.31
7906;BME280;13291;40.472;-3.878;2023-06-14T00:42:37;53260.03;;;-139.96;51.18
7906;BME280;13291;40.472;-3.878;2023-06-14T00:45:05;53214.03;;;-139.96;51.31
7906;BME280;13291;40.472;-3.878;2023-06-14T00:47:34;53232.03;;;-139.96;51.16
7906;BME280;13291;40.472;-3.878;2023-06-14T00:50:06;53242.03;;;-139.96;51.59
7906;BME280;13291;40.472;-3.878;2023-06-14T00:52:34;53222.03;;;-139.96;51.91
7906;BME280;13291;40.472;-3.878;2023-06-14T00:55:01;53234.03;;;-139.96;51.68
7906;BME280;13291;40.472;-3.878;2023-06-14T00:57:28;53240.03;;;-139.96;51.72
7906;BME280;13291;40.472;-3.878;2023-06-14T00:59:55;53222.03;;;-139.96;52.05
7906;BME280;13291;40.472;-3.878;2023-06-14T01:02:22;53238.03;;;-139.96;51.96
7906;BME280;13291;40.472;-3.878;2023-06-14T01:04:52;53226.03;;;-139.96;51.88
7906;BME280;13291;40.472;-3.878;2023-06-14T01:07:36;53210.03;;;-139.96;51.60
7906;BME280;13291;40.472;-3.878;2023-06-14T01:10:20;53276.03;;;-139.96;51.74
7906;BME280;13291;40.472;-3.878;2023-06-14T01:12:54;53254.03;;;-139.96;51.56
7906;BME280;13291;40.472;-3.878;2023-06-14T01:15:24;53256.03;;;-139.96;51.87
7906;BME280;13291;40.472;-3.878;2023-06-14T01:17:52;53262.03;;;-139.96;51.80
7906;BME280;13291;40.472;-3.878;2023-06-14T01:20:21;53264.03;;;-139.96;52.12
7906;BME280;13291;40.472;-3.878;2023-06-14T01:22:52;53236.03;;;-139.96;52.47
7906;BME280;13291;40.472;-3.878;2023-06-14T01:25:19;53298.06;;;-139.96;52.72
7906;BME280;13291;40.472;-3.878;2023-06-14T01:27:48;53218.03;;;-139.96;52.62
7906;BME280;13291;40.472;-3.878;2023-06-14T01:30:17;53242.03;;;-139.96;52.32
7906;BME280;13291;40.472;-3.878;2023-06-14T01:32:45;53256.03;;;-139.96;51.39
7906;BME280;13291;40.472;-3.878;2023-06-14T01:35:13;53268.03;;;-139.96;50.83
7906;BME280;13291;40.472;-3.878;2023-06-14T01:37:42;53234.03;;;-139.96;50.81
7906;BME280;13291;40.472;-3.878;2023-06-14T01:40:12;53234.03;;;-139.96;50.25
7906;BME280;13291;40.472;-3.878;2023-06-14T01:42:41;53246.03;;;-139.96;50.56
7906;BME280;13291;40.472;-3.878;2023-06-14T01:45:09;53234.03;;;-139.96;50.54
7906;BME280;13291;40.472;-3.878;2023-06-14T01:47:37;53244.03;;;-139.96;50.33
7906;BME280;13291;40.472;-3.878;2023-06-14T01:50:04;53242.03;;;-139.96;50.25
7906;BME280;13291;40.472;-3.878;2023-06-14T01:52:31;53240.03;;;-139.96;50.14
7906;BME280;13291;40.472;-3.878;2023-06-14T01:54:58;53242.03;;;-139.96;50.35
7906;BME280;13291;40.472;-3.878;2023-06-14T01:57:28;53242.03;;;-139.96;50.43
7906;BME280;13291;40.472;-3.878;2023-06-14T01:59:56;53270.03;;;-139.96;50.40
7906;BME280;13291;40.472;-3.878;2023-06-14T02:02:22;53242.03;;;-139.96;50.61
7906;BME280;13291;40.472;-3.878;2023-06-14T02:04:49;53242.03;;;-139.96;50.50
7906;BME280;13291;40.472;-3.878;2023-06-14T02:07:17;53218.03;;;-139.96;50.54
7906;BME280;13291;40.472;-3.878;2023-06-14T02:09:44;53248.03;;;-139.96;50.96
7906;BME280;13291;40.472;-3.878;2023-06-14T02:12:11;53276.03;;;-139.96;51.44
7906;BME280;13291;40.472;-3.878;2023-06-14T02:14:39;53246.03;;;-139.96;51.94
7906;BME280;13291;40.472;-3.878;2023-06-14T02:17:06;53238.03;;;-139.96;51.71
7906;BME280;13291;40.472;-3.878;2023-06-14T02:19:33;53252.03;;;-139.96;51.51
7906;BME280;13291;40.472;-3.878;2023-06-14T02:22:00;53258.03;;;-139.96;51.69
7906;BME280;13291;40.472;-3.878;2023-06-14T02:24:27;53262.03;;;-139.96;52.08
7906;BME280;13291;40.472;-3.878;2023-06-14T02:26:54;53268.03;;;-139.96;52.03
7906;BME280;13291;40.472;-3.878;2023-06-14T02:29:21;53254.03;;;-139.96;51.71
7906;BME280;13291;40.472;-3.878;2023-06-14T02:31:49;53250.03;;;-139.96;51.62
7906;BME280;13291;40.472;-3.878;2023-06-14T02:34:16;53292.06;;;-139.96;51.49
7906;BME280;13291;40.472;-3.878;2023-06-14T02:36:43;53282.06;;;-139.96;51.65
7906;BME280;13291;40.472;-3.878;2023-06-14T02:39:10;53232.03;;;-139.96;52.03
7906;BME280;13291;40.472;-3.878;2023-06-14T02:41:38;53278.06;;;-139.96;51.67
7906;BME280;13291;40.472;-3.878;2023-06-14T02:44:05;53250.03;;;-139.96;51.80
7906;BME280;13291;40.472;-3.878;2023-06-14T02:46:32;53268.03;;;-139.96;52.32
7906;BME280;13291;40.472;-3.878;2023-06-14T02:49:00;53268.03;;;-139.96;52.59
7906;BME280;13291;40.472;-3.878;2023-06-14T02:51:27;53274.03;;;-139.96;52.65
7906;BME280;13291;40.472;-3.878;2023-06-14T02:53:54;53278.06;;;-139.96;52.43
7906;BME280;13291;40.472;-3.878;2023-06-14T02:56:21;53266.03;;;-139.96;52.21
7906;BME280;13291;40.472;-3.878;2023-06-14T02:58:48;53250.03;;;-139.96;52.65
7906;BME280;13291;40.472;-3.878;2023-06-14T03:01:16;53262.03;;;-139.96;52.57
7906;BME280;13291;40.472;-3.878;2023-06-14T03:03:43;53268.03;;;-139.96;53.13
7906;BME280;13291;40.472;-3.878;2023-06-14T03:06:11;53222.03;;;-139.96;53.07
7906;BME280;13291;40.472;-3.878;2023-06-14T03:08:39;53270.03;;;-139.96;53.04
7906;BME280;13291;40.472;-3.878;2023-06-14T03:11:07;53274.03;;;-139.96;53.05
7906;BME280;13291;40.472;-3.878;2023-06-14T03:13:34;53256.03;;;-139.96;53.18
7906;BME280;13291;40.472;-3.878;2023-06-14T03:16:01;53280.06;;;-139.96;53.58
7906;BME280;13291;40.472;-3.878;2023-06-14T03:18:29;53272.03;;;-139.96;53.61
7906;BME280;13291;40.472;-3.878;2023-06-14T03:20:56;53306.06;;;-139.96;53.72
7906;BME280;13291;40.472;-3.878;2023-06-14T03:23:25;53274.03;;;-139.96;53.46
7906;BME280;13291;40.472;-3.878;2023-06-14T03:25:52;53262.03;;;-139.96;53.42
7906;BME280;13291;40.472;-3.878;2023-06-14T03:28:19;53260.03;;;-139.96;53.77
7906;BME280;13291;40.472;-3.878;2023-06-14T03:30:46;53268.03;;;-139.96;53.89
7906;BME280;13291;40.472;-3.878;2023-06-14T03:33:13;53286.06;;;-139.96;53.57
7906;BME280;13291;40.472;-3.878;2023-06-14T03:35:41;53262.03;;;-139.96;53.75
7906;BME280;13291;40.472;-3.878;2023-06-14T03:38:07;53258.03;;;-139.96;53.52
7906;BME280;13291;40.472;-3.878;2023-06-14T03:40:36;53262.03;;;-139.96;53.55
7906;BME280;13291;40.472;-3.878;2023-06-14T03:43:03;53262.03;;;-139.96;53.47
7906;BME280;13291;40.472;-3.878;2023-06-14T03:45:30;53288.06;;;-139.96;53.53
7906;BME280;13291;40.472;-3.878;2023-06-14T03:47:57;53284.06;;;-139.96;53.47
7906;BME280;13291;40.472;-3.878;2023-06-14T03:50:26;53254.03;;;-139.96;53.30
7906;BME280;13291;40.472;-3.878;2023-06-14T03:52:53;53250.03;;;-139.96;53.28
7906;BME280;13291;40.472;-3.878;2023-06-14T03:55:20;53266.03;;;-139.96;52.85
7906;BME280;13291;40.472;-3.878;2023-06-14T03:57:52;53238.03;;;-139.96;53.28
7906;BME280;13291;40.472;-3.878;2023-06-14T04:00:19;53250.03;;;-139.96;53.55
7906;BME280;13291;40.472;-3.878;2023-06-14T04:02:45;53262.03;;;-139.96;53.05
7906;BME280;13291;40.472;-3.878;2023-06-14T04:05:13;53242.03;;;-139.96;53.62
7906;BME280;13291;40.472;-3.878;2023-06-14T04:07:42;53258.03;;;-139.96;53.30
7906;BME280;13291;40.472;-3.878;2023-06-14T04:10:11;53278.06;;;-139.96;53.22
7906;BME280;13291;40.472;-3.878;2023-06-14T04:12:38;53262.03;;;-139.96;53.42
7906;BME280;13291;40.472;-3.878;2023-06-14T04:15:08;53292.06;;;-139.96;52.91
7906;BME280;13291;40.472;-3.878;2023-06-14T04:17:36;53246.03;;;-139.96;53.50
7906;BME280;13291;40.472;-3.878;2023-06-14T04:20:04;53258.03;;;-139.96;53.31
7906;BME280;13291;40.472;-3.878;2023-06-14T04:22:35;53270.03;;;-139.96;53.35
7906;BME280;13291;40.472;-3.878;2023-06-14T04:25:02;53298.06;;;-139.96;53.10
7906;BME280;13291;40.472;-3.878;2023-06-14T04:27:31;53284.06;;;-139.96;53.81
7906;BME280;13291;40.472;-3.878;2023-06-14T04:30:02;53282.06;;;-139.96;53.66
7906;BME280;13291;40.472;-3.878;2023-06-14T04:32:30;53272.03;;;-139.96;53.87
7906;BME280;13291;40.472;-3.878;2023-06-14T04:34:59;53262.03;;;-139.96;54.38
7906;BME280;13291;40.472;-3.878;2023-06-14T04:37:27;53270.03;;;-139.96;54.12
7906;BME280;13291;40.472;-3.878;2023-06-14T04:39:55;53290.06;;;-139.96;53.56
7906;BME280;13291;40.472;-3.878;2023-06-14T04:42:22;53278.06;;;-139.96;53.96
7906;BME280;13291;40.472;-3.878;2023-06-14T04:44:51;53262.03;;;-139.96;53.84
7906;BME280;13291;40.472;-3.878;2023-06-14T04:47:21;53282.06;;;-139.96;54.20
7906;BME280;13291;40.472;-3.878;2023-06-14T04:49:51;53258.03;;;-139.96;54.24
7906;BME280;13291;40.472;-3.878;2023-06-14T04:52:19;53294.06;;;-139.96;54.41
7906;BME280;13291;40.472;-3.878;2023-06-14T04:54:46;53256.03;;;-139.96;54.92
7906;BME280;13291;40.472;-3.878;2023-06-14T04:57:14;53286.06;;;-139.96;54.91
7906;BME280;13291;40.472;-3.878;2023-06-14T04:59:42;53292.06;;;-139.96;54.68
7906;BME280;13291;40.472;-3.878;2023-06-14T05:02:09;53276.03;;;-139.96;54.71
7906;BME280;13291;40.472;-3.878;2023-06-14T05:04:37;53288.06;;;-139.96;55.33
7906;BME280;13291;40.472;-3.878;2023-06-14T05:07:08;53254.03;;;-139.96;55.13
7906;BME280;13291;40.472;-3.878;2023-06-14T05:09:36;53284.06;;;-139.96;54.71
7906;BME280;13291;40.472;-3.878;2023-06-14T05:12:04;53262.03;;;-139.96;55.09
7906;BME280;13291;40.472;-3.878;2023-06-14T05:14:33;53280.06;;;-139.96;55.19
7906;BME280;13291;40.472;-3.878;2023-06-14T05:17:00;53270.03;;;-139.96;54.95
7906;BME280;13291;40.472;-3.878;2023-06-14T05:19:28;53282.06;;;-139.96;54.81
7906;BME280;13291;40.472;-3.878;2023-06-14T05:21:55;53278.06;;;-139.96;54.74
7906;BME280;13291;40.472;-3.878;2023-06-14T05:24:23;53262.03;;;-139.96;54.54
7906;BME280;13291;40.472;-3.878;2023-06-14T05:26:50;53290.06;;;-139.96;53.96
7906;BME280;13291;40.472;-3.878;2023-06-14T05:29:17;53262.03;;;-139.96;54.10
7906;BME280;13291;40.472;-3.878;2023-06-14T05:31:44;53246.03;;;-139.96;53.11
7906;BME280;13291;40.472;-3.878;2023-06-14T05:34:11;53260.03;;;-139.96;53.48
7906;BME280;13291;40.472;-3.878;2023-06-14T05:36:38;53262.03;;;-139.96;52.85
7906;BME280;13291;40.472;-3.878;2023-06-14T05:39:05;53234.03;;;-139.96;52.35
7906;BME280;13291;40.472;-3.878;2023-06-14T05:41:33;53240.03;;;-139.96;52.24
7906;BME280;13291;40.472;-3.878;2023-06-14T05:44:01;53256.03;;;-139.96;52.72
7906;BME280;13291;40.472;-3.878;2023-06-14T05:46:28;53270.03;;;-139.96;52.92
7906;BME280;13291;40.472;-3.878;2023-06-14T05:48:55;53278.06;;;-139.96;52.47
7906;BME280;13291;40.472;-3.878;2023-06-14T05:51:23;53234.03;;;-139.96;52.51
7906;BME280;13291;40.472;-3.878;2023-06-14T05:53:51;53234.03;;;-139.96;52.71
7906;BME280;13291;40.472;-3.878;2023-06-14T05:56:18;53226.03;;;-139.96;52.29
7906;BME280;13291;40.472;-3.878;2023-06-14T05:58:46;53266.03;;;-139.96;52.33
7906;BME280;13291;40.472;-3.878;2023-06-14T06:01:14;53276.03;;;-139.96;51.99
7906;BME280;13291;40.472;-3.878;2023-06-14T06:03:41;53268.03;;;-139.96;52.64
7906;BME280;13291;40.472;-3.878;2023-06-14T06:06:11;53262.03;;;-139.96;53.18
7906;BME280;13291;40.472;-3.878;2023-06-14T06:08:38;53248.03;;;-139.96;53.44
7906;BME280;13291;40.472;-3.878;2023-06-14T06:11:06;53262.03;;;-139.96;53.73
7906;BME280;13291;40.472;-3.878;2023-06-14T06:13:35;53278.06;;;-139.96;54.12
7906;BME280;13291;40.472;-3.878;2023-06-14T06:16:04;53284.06;;;-139.96;54.22
7906;BME280;13291;40.472;-3.878;2023-06-14T06:18:31;53286.06;;;-139.96;53.63
7906;BME280;13291;40.472;-3.878;2023-06-14T06:20:58;53284.06;;;-139.96;52.23
7906;BME280;13291;40.472;-3.878;2023-06-14T06:23:25;53262.03;;;-139.96;52.88
7906;BME280;13291;40.472;-3.878;2023-06-14T06:25:52;53256.03;;;-139.96;52.58
7906;BME280;13291;40.472;-3.878;2023-06-14T06:28:18;53280.06;;;-139.96;52.83
7906;BME280;13291;40.472;-3.878;2023-06-14T06:30:45;53290.06;;;-139.96;52.41
7906;BME280;13291;40.472;-3.878;2023-06-14T06:33:14;53286.06;;;-139.96;53.02
7906;BME280;13291;40.472;-3.878;2023-06-14T06:35:40;53302.06;;;-139.96;52.43
7906;BME280;13291;40.472;-3.878;2023-06-14T06:38:08;53276.03;;;-139.96;52.34
7906;BME280;13291;40.472;-3.878;2023-06-14T06:40:35;53264.03;;;-139.96;52.47
7906;BME280;13291;40.472;-3.878;2023-06-14T06:43:02;53244.03;;;-139.96;52.43
7906;BME280;13291;40.472;-3.878;2023-06-14T06:45:29;53266.03;;;-139.96;52.23
7906;BME280;13291;40.472;-3.878;2023-06-14T06:47:56;53298.06;;;-139.96;52.30
7906;BME280;13291;40.472;-3.878;2023-06-14T06:50:24;53288.06;;;-139.96;52.50
7906;BME280;13291;40.472;-3.878;2023-06-14T06:52:51;53276.03;;;-139.96;52.60
7906;BME280;13291;40.472;-3.878;2023-06-14T06:55:18;53254.03;;;-139.96;53.06
7906;BME280;13291;40.472;-3.878;2023-06-14T06:57:45;53258.03;;;-139.96;52.80
7906;BME280;13291;40.472;-3.878;2023-06-14T07:00:13;53232.03;;;-139.96;52.38
7906;BME280;13291;40.472;-3.878;2023-06-14T07:02:39;53274.03;;;-139.96;52.71
7906;BME280;13291;40.472;-3.878;2023-06-14T07:05:06;53256.03;;;-139.96;52.62
7906;BME280;13291;40.472;-3.878;2023-06-14T07:07:35;53250.03;;;-139.96;53.25
7906;BME280;13291;40.472;-3.878;2023-06-14T07:10:02;53266.03;;;-139.96;52.93
7906;BME280;13291;40.472;-3.878;2023-06-14T07:12:30;53278.06;;;-139.96;52.65
7906;BME280;13291;40.472;-3.878;2023-06-14T07:14:59;53262.03;;;-139.96;52.43
7906;BME280;13291;40.472;-3.878;2023-06-14T07:17:26;53276.03;;;-139.96;53.18
7906;BME280;13291;40.472;-3.878;2023-06-14T07:19:53;53228.03;;;-139.96;53.42
7906;BME280;13291;40.472;-3.878;2023-06-14T07:22:20;53214.03;;;-139.96;52.84
7906;BME280;13291;40.472;-3.878;2023-06-14T07:24:48;53260.03;;;-139.96;53.37
7906;BME280;13291;40.472;-3.878;2023-06-14T07:27:15;53244.03;;;-139.96;53.31
7906;BME280;13291;40.472;-3.878;2023-06-14T07:29:42;53258.03;;;-139.96;52.50
7906;BME280;13291;40.472;-3.878;2023-06-14T07:32:09;53270.03;;;-139.96;52.52
7906;BME280;13291;40.472;-3.878;2023-06-14T07:34:36;53222.03;;;-139.96;52.31
7906;BME280;13291;40.472;-3.878;2023-06-14T07:37:03;53220.03;;;-139.96;51.67
7906;BME280;13291;40.472;-3.878;2023-06-14T07:39:30;53234.03;;;-139.96;51.70
7906;BME280;13291;40.472;-3.878;2023-06-14T07:41:58;53218.03;;;-139.96;51.03
7906;BME280;13291;40.472;-3.878;2023-06-14T07:44:29;53240.03;;;-139.96;50.61
7906;BME280;13291;40.472;-3.878;2023-06-14T07:46:56;53230.03;;;-139.96;50.30
7906;BME280;13291;40.472;-3.878;2023-06-14T07:49:25;53218.03;;;-139.96;49.52
7906;BME280;13291;40.472;-3.878;2023-06-14T07:51:52;53214.03;;;-139.96;48.81
7906;BME280;13291;40.472;-3.878;2023-06-14T07:54:19;53208.03;;;-139.96;49.89
7906;BME280;13291;40.472;-3.878;2023-06-14T07:56:50;53204.03;;;-139.96;50.12
7906;BME280;13291;40.472;-3.878;2023-06-14T07:59:18;53214.03;;;-139.96;49.91
7906;BME280;13291;40.472;-3.878;2023-06-14T08:01:45;53210.03;;;-139.96;48.48
7906;BME280;13291;40.472;-3.878;2023-06-14T08:04:13;53246.03;;;-139.96;47.71
7906;BME280;13291;40.472;-3.878;2023-06-14T08:06:40;53262.03;;;-139.96;48.29
7906;BME280;13291;40.472;-3.878;2023-06-14T08:09:09;53204.03;;;-139.96;48.56
7906;BME280;13291;40.472;-3.878;2023-06-14T08:11:37;53234.03;;;-139.96;49.53
7906;BME280;13291;40.472;-3.878;2023-06-14T08:14:04;53192.03;;;-139.96;48.54
7906;BME280;13291;40.472;-3.878;2023-06-14T08:16:32;53242.03;;;-139.96;47.86
7906;BME280;13291;40.472;-3.878;2023-06-14T08:18:59;53222.03;;;-139.96;49.32
7906;BME280;13291;40.472;-3.878;2023-06-14T08:21:26;53230.03;;;-139.96;49.55
7906;BME280;13291;40.472;-3.878;2023-06-14T08:23:54;53230.03;;;-139.96;49.62
7906;BME280;13291;40.472;-3.878;2023-06-14T08:26:21;53212.03;;;-139.96;49.40
7906;BME280;13291;40.472;-3.878;2023-06-14T08:28:48;53268.03;;;-139.96;52.34
7906;BME280;13291;40.472;-3.878;2023-06-14T08:31:15;53236.03;;;-139.96;48.43
7906;BME280;13291;40.472;-3.878;2023-06-14T08:33:43;53194.03;;;-139.96;48.91
7906;BME280;13291;40.472;-3.878;2023-06-14T08:36:11;53192.03;;;-139.96;47.22
7906;BME280;13291;40.472;-3.878;2023-06-14T08:38:38;53194.03;;;-139.96;46.93
7906;BME280;13291;40.472;-3.878;2023-06-14T08:41:05;53216.03;;;-139.96;48.67
7906;BME280;13291;40.472;-3.878;2023-06-14T08:43:32;53242.03;;;-139.96;48.34
7906;BME280;13291;40.472;-3.878;2023-06-14T08:46:00;53202.03;;;-139.96;48.09
7906;BME280;13291;40.472;-3.878;2023-06-14T08:48:29;53222.03;;;-139.96;47.58
7906;BME280;13291;40.472;-3.878;2023-06-14T08:51:01;53176.03;;;-139.96;47.03
7906;BME280;13291;40.472;-3.878;2023-06-14T08:53:30;53186.03;;;-139.96;47.60
7906;BME280;13291;40.472;-3.878;2023-06-14T08:55:59;53218.03;;;-139.96;46.97
7906;BME280;13291;40.472;-3.878;2023-06-14T08:59:04;53178.03;;;-139.96;47.87
7906;BME280;13291;40.472;-3.878;2023-06-14T09:01:34;53208.03;;;-139.96;47.65
7906;BME280;13291;40.472;-3.878;2023-06-14T09:04:01;53200.03;;;-139.96;46.57
7906;BME280;13291;40.472;-3.878;2023-06-14T09:06:32;53198.03;;;-139.96;47.59
7906;BME280;13291;40.472;-3.878;2023-06-14T09:08:59;53202.03;;;-139.96;47.70
7906;BME280;13291;40.472;-3.878;2023-06-14T09:11:26;53210.03;;;-139.96;47.54
7906;BME280;13291;40.472;-3.878;2023-06-14T09:13:53;53150.00;;;-139.96;47.39
7906;BME280;13291;40.472;-3.878;2023-06-14T09:16:20;53190.03;;;-139.96;47.01
7906;BME280;13291;40.472;-3.878;2023-06-14T09:18:47;53182.03;;;-139.96;46.84
7906;BME280;13291;40.472;-3.878;2023-06-14T09:21:15;53194.03;;;-139.96;46.47
7906;BME280;13291;40.472;-3.878;2023-06-14T09:23:45;53210.03;;;-139.96;46.13
7906;BME280;13291;40.472;-3.878;2023-06-14T09:26:13;53174.03;;;-139.96;46.11
7906;BME280;13291;40.472;-3.878;2023-06-14T09:28:43;53150.00;;;-139.96;46.68
7906;BME280;13291;40.472;-3.878;2023-06-14T09:31:11;53216.03;;;-139.96;46.72
7906;BME280;13291;40.472;-3.878;2023-06-14T09:33:38;53170.03;;;-139.96;44.22
7906;BME280;13291;40.472;-3.878;2023-06-14T09:36:10;53188.03;;;-139.96;46.11
7906;BME280;13291;40.472;-3.878;2023-06-14T09:38:39;53208.03;;;-139.96;46.36
7906;BME280;13291;40.472;-3.878;2023-06-14T09:41:08;53210.03;;;-139.96;45.76
7906;BME280;13291;40.472;-3.878;2023-06-14T09:43:36;53178.03;;;-139.96;45.69
7906;BME280;13291;40.472;-3.878;2023-06-14T09:46:04;53172.03;;;-139.96;44.46
7906;BME280;13291;40.472;-3.878;2023-06-14T09:48:33;53192.03;;;-139.96;45.09
7906;BME280;13291;40.472;-3.878;2023-06-14T09:51:01;53204.03;;;-139.96;45.02
7906;BME280;13291;40.472;-3.878;2023-06-14T09:53:30;53156.03;;;-139.96;45.50
7906;BME280;13291;40.472;-3.878;2023-06-14T09:55:59;53174.03;;;-139.96;44.17
7906;BME280;13291;40.472;-3.878;2023-06-14T09:58:28;53176.03;;;-139.96;43.89
7906;BME280;13291;40.472;-3.878;2023-06-14T10:00:57;53162.03;;;-139.96;43.70
7906;BME280;13291;40.472;-3.878;2023-06-14T10:03:28;53158.03;;;-139.96;44.20
7906;BME280;13291;40.472;-3.878;2023-06-14T10:05:55;53152.00;;;-139.96;45.29
7906;BME280;13291;40.472;-3.878;2023-06-14T10:08:27;53154.00;;;-139.96;45.20
7906;BME280;13291;40.472;-3.878;2023-06-14T10:10:58;53158.03;;;-139.96;45.88
7906;BME280;13291;40.472;-3.878;2023-06-14T10:13:28;53166.03;;;-139.96;43.83
7906;BME280;13291;40.472;-3.878;2023-06-14T10:16:02;53184.03;;;-139.96;44.63
7906;BME280;13291;40.472;-3.878;2023-06-14T10:18:38;53182.03;;;-139.96;46.30
7906;BME280;13291;40.472;-3.878;2023-06-14T10:21:14;53186.03;;;-139.96;46.15
7906;BME280;13291;40.472;-3.878;2023-06-14T10:23:44;53174.03;;;-139.96;43.82
7906;BME280;13291;40.472;-3.878;2023-06-14T10:26:18;53166.03;;;-139.96;43.77
7906;BME280;13291;40.472;-3.878;2023-06-14T10:28:57;53200.03;;;-139.96;45.00
7906;BME280;13291;40.472;-3.878;2023-06-14T10:31:40;53174.03;;;-139.96;45.52
7906;BME280;13291;40.472;-3.878;2023-06-14T10:34:07;53166.03;;;-139.96;45.00
7906;BME280;13291;40.472;-3.878;2023-06-14T10:36:35;53192.03;;;-139.96;45.83
7906;BME280;13291;40.472;-3.878;2023-06-14T10:39:05;53198.03;;;-139.96;46.26
7906;BME280;13291;40.472;-3.878;2023-06-14T10:41:35;53150.00;;;-139.96;44.25
7906;BME280;13291;40.472;-3.878;2023-06-14T10:44:41;53154.00;;;-139.96;41.72
7906;BME280;13291;40.472;-3.878;2023-06-14T10:47:10;53166.03;;;-139.96;42.92
7906;BME280;13291;40.472;-3.878;2023-06-14T10:49:40;53162.03;;;-139.96;43.91
7906;BME280;13291;40.472;-3.878;2023-06-14T10:52:11;53170.03;;;-139.96;44.58
7906;BME280;13291;40.472;-3.878;2023-06-14T10:55:10;53178.03;;;-139.96;42.58
7906;BME280;13291;40.472;-3.878;2023-06-14T10:57:39;53142.00;;;-139.96;43.12
7906;BME280;13291;40.472;-3.878;2023-06-14T11:00:09;53158.03;;;-139.96;42.62
7906;BME280;13291;40.472;-3.878;2023-06-14T11:03:24;53146.00;;;-139.96;43.11
7906;BME280;13291;40.472;-3.878;2023-06-14T11:05:58;53180.03;;;-139.96;43.32
7906;BME280;13291;40.472;-3.878;2023-06-14T11:11:38;53138.00;;;-139.96;43.93
7906;BME280;13291;40.472;-3.878;2023-06-14T11:14:08;53142.00;;;-139.96;43.80
7906;BME280;13291;40.472;-3.878;2023-06-14T11:16:36;53142.00;;;-139.96;43.49
7906;BME280;13291;40.472;-3.878;2023-06-14T11:19:03;53158.03;;;-139.96;43.46
7906;BME280;13291;40.472;-3.878;2023-06-14T11:21:32;53162.03;;;-139.96;43.34
7906;BME280;13291;40.472;-3.878;2023-06-14T11:23:59;53146.00;;;-139.96;44.14
7906;BME280;13291;40.472;-3.878;2023-06-14T11:26:26;53166.03;;;-139.96;43.88
7906;BME280;13291;40.472;-3.878;2023-06-14T11:28:57;53174.03;;;-139.96;43.63
7906;BME280;13291;40.472;-3.878;2023-06-14T11:31:25;53170.03;;;-139.96;43.31
7906;BME280;13291;40.472;-3.878;2023-06-14T11:33:54;53134.00;;;-139.96;44.26
7906;BME280;13291;40.472;-3.878;2023-06-14T11:36:22;53162.03;;;-139.96;42.94
7906;BME280;13291;40.472;-3.878;2023-06-14T11:38:49;53166.03;;;-139.96;42.70
7906;BME280;13291;40.472;-3.878;2023-06-14T11:41:17;53190.03;;;-139.96;43.59
7906;BME280;13291;40.472;-3.878;2023-06-14T11:43:44;53172.03;;;-139.96;43.03
7906;BME280;13291;40.472;-3.878;2023-06-14T11:46:14;53146.00;;;-139.96;42.87
7906;BME280;13291;40.472;-3.878;2023-06-14T11:48:43;53172.03;;;-139.96;43.13
7906;BME280;13291;40.472;-3.878;2023-06-14T11:51:12;53154.00;;;-139.96;42.94
7906;BME280;13291;40.472;-3.878;2023-06-14T11:53:39;53156.03;;;-139.96;43.65
7906;BME280;13291;40.472;-3.878;2023-06-14T11:56:06;53134.00;;;-139.96;43.49
7906;BME280;13291;40.472;-3.878;2023-06-14T11:58:33;53160.03;;;-139.96;42.38
7906;BME280;13291;40.472;-3.878;2023-06-14T12:01:02;53148.00;;;-139.96;43.69
7906;BME280;13291;40.472;-3.878;2023-06-14T12:03:29;53136.00;;;-139.96;45.26
7906;BME280;13291;40.472;-3.878;2023-06-14T12:06:04;53142.00;;;-139.96;42.10
7906;BME280;13291;40.472;-3.878;2023-06-14T12:08:34;53154.00;;;-139.96;42.39
7906;BME280;13291;40.472;-3.878;2023-06-14T12:11:11;53160.03;;;-139.96;42.37
7906;BME280;13291;40.472;-3.878;2023-06-14T12:13:39;53132.00;;;-139.96;42.51
7906;BME280;13291;40.472;-3.878;2023-06-14T12:16:07;53154.00;;;-139.96;42.31
7906;BME280;13291;40.472;-3.878;2023-06-14T12:18:35;53154.00;;;-139.96;42.39
7906;BME280;13291;40.472;-3.878;2023-06-14T12:21:04;53116.00;;;-139.96;41.30
7906;BME280;13291;40.472;-3.878;2023-06-14T12:23:46;53154.00;;;-139.96;41.56
7906;BME280;13291;40.472;-3.878;2023-06-14T12:26:14;53108.00;;;-139.96;42.17
7906;BME280;13291;40.472;-3.878;2023-06-14T12:28:42;53158.03;;;-139.96;42.04
7906;BME280;13291;40.472;-3.878;2023-06-14T12:31:10;53142.00;;;-139.96;43.48
7906;BME280;13291;40.472;-3.878;2023-06-14T12:33:38;53106.00;;;-139.96;42.26
7906;BME280;13291;40.472;-3.878;2023-06-14T12:36:06;53128.00;;;-139.96;41.22
7906;BME280;13291;40.472;-3.878;2023-06-14T12:38:33;53102.00;;;-139.96;42.91
7906;BME280;13291;40.472;-3.878;2023-06-14T12:41:02;53102.00;;;-139.96;39.84
7906;BME280;13291;40.472;-3.878;2023-06-14T12:43:29;53088.00;;;-139.96;40.15
7906;BME280;13291;40.472;-3.878;2023-06-14T12:45:56;53102.00;;;-139.96;40.47
7906;BME280;13291;40.472;-3.878;2023-06-14T12:48:23;53106.00;;;-139.96;41.33
7906;BME280;13291;40.472;-3.878;2023-06-14T12:50:50;53098.00;;;-139.96;40.77